createdAt,value
2023-02-27T00:01:21.040Z,-0.81
2023-02-27T00:06:22.226Z,-0.90
2023-02-27T00:11:23.412Z,-0.89
2023-02-27T00:16:24.652Z,-0.91
2023-02-27T00:21:26.183Z,-0.93
2023-02-27T00:26:27.570Z,-0.95
2023-02-27T00:31:29.212Z,-0.99
2023-02-27T00:36:30.587Z,-1.07
2023-02-27T00:41:31.765Z,-1.10
2023-02-27T00:46:32.894Z,-1.09
2023-02-27T00:51:34.537Z,-1.03
2023-02-27T00:56:36.669Z,-1.06
2023-02-27T01:01:37.861Z,-1.06
2023-02-27T01:06:38.994Z,-1.18
2023-02-27T01:11:40.186Z,-1.26
2023-02-27T01:16:41.452Z,-1.34
2023-02-27T01:21:42.715Z,-1.40
2023-02-27T01:26:44.761Z,-1.41
2023-02-27T01:31:46.117Z,-1.46
2023-02-27T01:36:47.393Z,-1.52
2023-02-27T01:41:49.279Z,-1.63
2023-02-27T01:46:50.459Z,-1.66
2023-02-27T01:51:51.665Z,-1.67
2023-02-27T01:56:52.868Z,-1.65
2023-02-27T02:01:54.056Z,-1.67
2023-02-27T02:06:55.314Z,-1.66
2023-02-27T02:11:56.500Z,-1.78
2023-02-27T02:16:59.331Z,-2.05
2023-02-27T02:22:00.608Z,-1.61
2023-02-27T02:27:01.785Z,-1.58
2023-02-27T02:32:03.223Z,-1.52
2023-02-27T02:37:04.450Z,-1.60
2023-02-27T02:42:05.666Z,-1.55
2023-02-27T02:47:06.943Z,-1.59
2023-02-27T02:52:08.126Z,-1.65
2023-02-27T02:57:09.274Z,-1.67
2023-02-27T03:02:10.436Z,-1.73
2023-02-27T03:07:11.635Z,-1.72
2023-02-27T03:12:12.779Z,-1.79
2023-02-27T03:17:13.901Z,-1.83
2023-02-27T03:22:15.104Z,-1.80
2023-02-27T03:27:16.305Z,-1.84
2023-02-27T03:32:17.644Z,-1.88
2023-02-27T03:37:18.807Z,-1.90
2023-02-27T03:42:19.957Z,-1.90
2023-02-27T03:47:21.124Z,-2.00
2023-02-27T03:52:22.378Z,-2.03
2023-02-27T03:57:23.601Z,-2.05
2023-02-27T04:02:24.874Z,-2.11
2023-02-27T04:07:26.272Z,-2.15
2023-02-27T04:12:27.509Z,-2.18
2023-02-27T04:17:28.657Z,-2.24
2023-02-27T04:22:29.978Z,-2.29
2023-02-27T04:27:31.358Z,-2.35
2023-02-27T04:32:32.638Z,-2.41
2023-02-27T04:37:33.889Z,-2.49
2023-02-27T04:42:35.113Z,-2.68
2023-02-27T04:47:36.269Z,-2.93
2023-02-27T04:52:37.432Z,-3.02
2023-02-27T04:57:38.668Z,-3.14
2023-02-27T05:02:39.892Z,-3.13
2023-02-27T05:07:41.107Z,-3.14
2023-02-27T05:12:42.321Z,-3.20
2023-02-27T05:17:43.558Z,-3.22
2023-02-27T05:22:44.809Z,-3.28
2023-02-27T05:27:47.034Z,-3.24
2023-02-27T05:32:48.321Z,-3.30
2023-02-27T05:37:49.604Z,-3.37
2023-02-27T05:42:50.832Z,-3.45
2023-02-27T05:47:52.039Z,-3.47
2023-02-27T05:52:53.238Z,-3.40
2023-02-27T05:57:54.500Z,-3.42
2023-02-27T06:02:55.722Z,-3.44
2023-02-27T06:07:56.966Z,-3.47
2023-02-27T06:12:58.225Z,-3.50
2023-02-27T06:17:59.489Z,-3.52
2023-02-27T06:23:00.760Z,-3.46
2023-02-27T06:28:01.974Z,-3.47
2023-02-27T06:33:03.150Z,-3.54
2023-02-27T06:38:05.053Z,-3.61
2023-02-27T06:43:06.304Z,-3.64
2023-02-27T06:48:07.499Z,-3.64
2023-02-27T06:53:08.635Z,-3.55
2023-02-27T06:58:09.848Z,-3.54
2023-02-27T07:03:11.088Z,-3.47
2023-02-27T07:08:12.382Z,-3.43
2023-02-27T07:13:16.498Z,-3.38
2023-02-27T07:18:19.061Z,-3.26
2023-02-27T07:23:20.274Z,-3.09
2023-02-27T07:28:21.496Z,-2.97
2023-02-27T07:33:23.713Z,-2.92
2023-02-27T07:38:24.893Z,-2.81
2023-02-27T07:43:26.070Z,-2.68
2023-02-27T07:48:27.344Z,-2.50
2023-02-27T07:53:28.622Z,-2.43
2023-02-27T07:58:29.753Z,-2.33
2023-02-27T08:03:30.914Z,-2.22
2023-02-27T08:08:32.113Z,-2.06
2023-02-27T08:14:00.118Z,-1.96
2023-02-27T08:18:54.490Z,-1.84
2023-02-27T08:23:55.746Z,-1.66
2023-02-27T08:28:56.937Z,-1.55
2023-02-27T08:34:09.565Z,-1.39
2023-02-27T08:39:11.325Z,-1.20
2023-02-27T08:44:12.868Z,-0.95
2023-02-27T08:49:14.072Z,-0.60
2023-02-27T08:54:15.240Z,-0.20
2023-02-27T08:59:16.399Z,0.24
2023-02-27T09:04:17.677Z,0.71
2023-02-27T09:09:18.919Z,1.20
2023-02-27T09:14:20.069Z,1.76
2023-02-27T09:19:21.545Z,2.47
2023-02-27T09:24:22.776Z,2.93
2023-02-27T09:29:23.983Z,3.40
2023-02-27T09:34:25.864Z,3.88
2023-02-27T09:39:27.039Z,4.22
2023-02-27T09:44:44.828Z,4.88
2023-02-27T09:49:47.608Z,4.82
2023-02-27T09:54:49.020Z,5.14
2023-02-27T09:59:51.951Z,5.05
2023-02-27T10:04:54.163Z,5.23
2023-02-27T10:09:55.412Z,5.40
2023-02-27T10:14:56.694Z,5.89
2023-02-27T10:19:57.895Z,6.67
2023-02-27T10:24:59.676Z,6.79
2023-02-27T10:30:00.888Z,7.17
2023-02-27T10:35:02.018Z,7.13
2023-02-27T10:40:06.403Z,7.97
2023-02-27T10:45:07.595Z,8.37
2023-02-27T10:50:09.053Z,8.15
2023-02-27T10:55:10.242Z,8.53
2023-02-27T11:00:11.942Z,9.52
2023-02-27T11:05:13.166Z,9.81
2023-02-27T11:10:14.331Z,10.25
2023-02-27T11:15:15.555Z,8.62
2023-02-27T11:20:16.778Z,9.25
2023-02-27T11:25:18.311Z,8.71
2023-02-27T11:30:19.502Z,8.66
2023-02-27T11:35:20.680Z,8.81
2023-02-27T11:40:21.921Z,8.47
2023-02-27T11:46:04.275Z,8.81
2023-02-27T11:50:44.329Z,7.48
2023-02-27T11:55:45.621Z,7.49
2023-02-27T12:00:46.910Z,7.43
2023-02-27T12:05:48.119Z,7.41
2023-02-27T12:10:49.294Z,8.09
2023-02-27T12:15:51.161Z,8.37
2023-02-27T12:20:52.384Z,8.26
2023-02-27T12:25:53.872Z,8.99
2023-02-27T12:30:55.026Z,8.44
2023-02-27T12:35:56.413Z,7.89
2023-02-27T12:40:57.704Z,8.37
2023-02-27T12:45:58.920Z,7.94
2023-02-27T12:51:00.126Z,7.40
2023-02-27T12:56:01.295Z,7.82
2023-02-27T13:01:02.509Z,7.54
2023-02-27T13:06:03.934Z,7.37
2023-02-27T13:11:05.997Z,6.84
2023-02-27T13:16:07.217Z,6.80
2023-02-27T13:21:08.513Z,7.10
2023-02-27T13:26:09.690Z,6.21
2023-02-27T13:31:10.887Z,5.90
2023-02-27T13:36:12.036Z,6.46
2023-02-27T13:41:13.259Z,6.74
2023-02-27T13:46:14.447Z,6.28
2023-02-27T13:51:15.593Z,5.85
2023-02-27T13:56:16.723Z,6.11
2023-02-27T14:01:18.152Z,6.13
2023-02-27T14:06:19.449Z,6.84
2023-02-27T14:11:20.905Z,7.29
2023-02-27T14:16:22.090Z,6.49
2023-02-27T14:21:23.296Z,6.31
2023-02-27T14:26:26.489Z,6.37
2023-02-27T14:31:27.963Z,6.55
2023-02-27T14:36:29.363Z,5.56
2023-02-27T14:41:30.871Z,5.51
2023-02-27T14:46:32.169Z,5.85
2023-02-27T14:51:33.469Z,5.87
2023-02-27T14:56:34.699Z,5.94
2023-02-27T15:01:35.902Z,5.84
2023-02-27T15:06:37.217Z,5.48
2023-02-27T15:11:38.404Z,5.56
2023-02-27T15:16:39.727Z,5.36
2023-02-27T15:21:40.998Z,5.46
2023-02-27T15:26:42.237Z,5.39
2023-02-27T15:31:43.428Z,5.37
2023-02-27T15:36:44.779Z,5.28
2023-02-27T15:41:45.945Z,5.13
2023-02-27T15:46:47.632Z,5.22
2023-02-27T15:51:48.856Z,4.97
2023-02-27T15:56:49.994Z,4.82
2023-02-27T16:01:51.309Z,4.79
2023-02-27T16:06:52.554Z,4.77
2023-02-27T16:11:53.678Z,4.70
2023-02-27T16:16:54.874Z,4.53
2023-02-27T16:21:56.046Z,4.36
2023-02-27T16:26:57.224Z,4.31
2023-02-27T16:31:58.502Z,4.22
2023-02-27T16:36:59.825Z,4.15
2023-02-27T16:42:00.975Z,4.06
2023-02-27T16:47:02.258Z,3.98
2023-02-27T16:52:05.468Z,3.86
2023-02-27T16:57:06.657Z,3.71
2023-02-27T17:02:07.863Z,3.61
2023-02-27T17:07:09.035Z,3.51
2023-02-27T17:12:10.206Z,3.41
2023-02-27T17:17:11.561Z,3.31
2023-02-27T17:22:12.903Z,3.19
2023-02-27T17:27:14.033Z,3.07
2023-02-27T17:32:15.258Z,2.97
2023-02-27T17:37:16.698Z,2.96
2023-02-27T17:42:18.709Z,2.87
2023-02-27T17:47:20.041Z,2.77
2023-02-27T17:52:21.229Z,2.69
2023-02-27T17:57:22.402Z,2.63
2023-02-27T18:02:23.725Z,2.56
2023-02-27T18:07:25.019Z,2.45
2023-02-27T18:12:26.220Z,2.51
2023-02-27T18:17:27.625Z,2.63
2023-02-27T18:22:29.879Z,2.69
2023-02-27T18:27:31.086Z,2.70
2023-02-27T18:32:32.277Z,2.55
2023-02-27T18:37:33.439Z,2.39
2023-02-27T18:42:34.635Z,2.35
2023-02-27T18:47:36.304Z,2.39
2023-02-27T18:52:37.485Z,2.34
2023-02-27T18:57:38.665Z,2.36
2023-02-27T19:02:41.666Z,2.38
2023-02-27T19:07:42.937Z,2.40
2023-02-27T19:12:44.134Z,2.42
2023-02-27T19:17:46.734Z,2.49
2023-02-27T19:22:47.874Z,2.53
2023-02-27T19:27:49.063Z,2.49
2023-02-27T19:32:50.265Z,2.33
2023-02-27T19:37:56.898Z,2.17
2023-02-27T19:42:58.595Z,2.08
2023-02-27T19:47:59.793Z,1.95
2023-02-27T19:53:00.933Z,1.84
2023-02-27T19:58:02.095Z,1.75
2023-02-27T20:03:03.312Z,1.65
2023-02-27T20:08:04.505Z,1.58
2023-02-27T20:13:05.713Z,1.52
2023-02-27T20:18:06.919Z,1.50
2023-02-27T20:23:08.075Z,1.47
2023-02-27T20:28:09.308Z,1.44
2023-02-27T20:33:10.474Z,1.41
2023-02-27T20:38:11.877Z,1.30
2023-02-27T20:43:13.041Z,1.34
2023-02-27T20:48:14.224Z,1.42
2023-02-27T20:53:15.432Z,1.36
2023-02-27T20:58:16.604Z,1.40
2023-02-27T21:03:17.786Z,1.34
2023-02-27T21:08:19.067Z,1.23
2023-02-27T21:13:20.280Z,1.17
2023-02-27T21:18:21.445Z,1.12
2023-02-27T21:23:22.704Z,1.05
2023-02-27T21:28:23.906Z,0.96
2023-02-27T21:33:25.189Z,0.90
2023-02-27T21:38:26.417Z,0.80
2023-02-27T21:43:27.612Z,0.73
2023-02-27T21:48:28.787Z,0.67
2023-02-27T21:53:30.502Z,0.61
2023-02-27T21:58:31.743Z,0.50
2023-02-27T22:03:35.958Z,0.47
2023-02-27T22:08:37.174Z,0.43
2023-02-27T22:13:38.365Z,0.38
2023-02-27T22:18:39.606Z,0.26
2023-02-27T22:23:40.810Z,0.20
2023-02-27T22:28:42.023Z,0.19
2023-02-27T22:33:43.207Z,0.16
2023-02-27T22:38:44.433Z,0.13
2023-02-27T22:43:45.603Z,0.01
2023-02-27T22:48:46.844Z,-0.02
2023-02-27T22:53:48.313Z,-0.04
2023-02-27T22:58:49.497Z,-0.08
2023-02-27T23:03:51.163Z,-0.06
2023-02-27T23:08:52.479Z,-0.05
2023-02-27T23:13:53.709Z,-0.05
2023-02-27T23:18:55.006Z,-0.11
2023-02-27T23:23:57.974Z,-0.03
2023-02-27T23:28:59.244Z,-0.12
2023-02-27T23:34:00.447Z,-0.10
2023-02-27T23:39:02.906Z,0.04
2023-02-27T23:44:04.181Z,-0.04
2023-02-27T23:49:05.330Z,-0.07
2023-02-27T23:54:06.517Z,-0.11
2023-02-27T23:59:07.762Z,-0.14
